sensor_id;sensor_type;location;lat;lon;timestamp;temperature;humidity
20672;DHT22;10495;50.922;4.760;2022-08-03T00:01:19;22.40;63.00
20672;DHT22;10495;50.922;4.760;2022-08-03T00:03:45;22.30;63.30
20672;DHT22;10495;50.922;4.760;2022-08-03T00:06:10;22.30;63.10
20672;DHT22;10495;50.922;4.760;2022-08-03T00:08:36;22.30;63.20
20672;DHT22;10495;50.922;4.760;2022-08-03T00:11:02;22.30;63.60
20672;DHT22;10495;50.922;4.760;2022-08-03T00:13:28;22.30;64.00
20672;DHT22;10495;50.922;4.760;2022-08-03T00:15:54;22.20;64.00
20672;DHT22;10495;50.922;4.760;2022-08-03T00:18:20;22.20;64.10
20672;DHT22;10495;50.922;4.760;2022-08-03T00:20:45;22.10;64.60
20672;DHT22;10495;50.922;4.760;2022-08-03T00:23:11;22.10;64.50
20672;DHT22;10495;50.922;4.760;2022-08-03T00:25:37;22.10;64.70
20672;DHT22;10495;50.922;4.760;2022-08-03T00:28:04;22.10;65.00
20672;DHT22;10495;50.922;4.760;2022-08-03T00:30:29;22.00;64.80
20672;DHT22;10495;50.922;4.760;2022-08-03T00:32:55;22.00;65.10
20672;DHT22;10495;50.922;4.760;2022-08-03T00:35:21;22.00;65.10
20672;DHT22;10495;50.922;4.760;2022-08-03T00:37:47;22.00;65.20
20672;DHT22;10495;50.922;4.760;2022-08-03T00:40:14;22.00;65.00
20672;DHT22;10495;50.922;4.760;2022-08-03T00:42:54;21.90;65.30
20672;DHT22;10495;50.922;4.760;2022-08-03T00:45:22;21.90;65.50
20672;DHT22;10495;50.922;4.760;2022-08-03T00:47:48;21.90;65.60
20672;DHT22;10495;50.922;4.760;2022-08-03T00:50:14;21.80;65.70
20672;DHT22;10495;50.922;4.760;2022-08-03T00:52:40;21.80;66.00
20672;DHT22;10495;50.922;4.760;2022-08-03T00:55:06;21.80;66.40
20672;DHT22;10495;50.922;4.760;2022-08-03T00:57:32;21.70;66.80
20672;DHT22;10495;50.922;4.760;2022-08-03T00:59:58;21.60;67.10
20672;DHT22;10495;50.922;4.760;2022-08-03T01:02:27;21.60;67.40
20672;DHT22;10495;50.922;4.760;2022-08-03T01:04:54;21.60;67.20
20672;DHT22;10495;50.922;4.760;2022-08-03T01:07:48;21.60;67.40
20672;DHT22;10495;50.922;4.760;2022-08-03T01:15:42;21.50;68.30
20672;DHT22;10495;50.922;4.760;2022-08-03T01:18:21;21.50;68.20
20672;DHT22;10495;50.922;4.760;2022-08-03T01:20:55;21.50;68.30
20672;DHT22;10495;50.922;4.760;2022-08-03T01:23:36;21.40;68.50
20672;DHT22;10495;50.922;4.760;2022-08-03T01:31:22;21.40;68.30
20672;DHT22;10495;50.922;4.760;2022-08-03T01:33:56;21.40;68.50
20672;DHT22;10495;50.922;4.760;2022-08-03T01:36:27;21.40;68.70
20672;DHT22;10495;50.922;4.760;2022-08-03T01:38:57;21.30;68.50
20672;DHT22;10495;50.922;4.760;2022-08-03T01:41:32;21.30;68.50
20672;DHT22;10495;50.922;4.760;2022-08-03T01:44:00;21.30;68.60
20672;DHT22;10495;50.922;4.760;2022-08-03T01:46:28;21.30;68.70
20672;DHT22;10495;50.922;4.760;2022-08-03T01:48:56;21.20;68.50
20672;DHT22;10495;50.922;4.760;2022-08-03T01:51:22;21.30;68.60
20672;DHT22;10495;50.922;4.760;2022-08-03T01:53:49;21.30;69.10
20672;DHT22;10495;50.922;4.760;2022-08-03T01:56:17;21.30;68.50
20672;DHT22;10495;50.922;4.760;2022-08-03T01:58:44;21.30;68.40
20672;DHT22;10495;50.922;4.760;2022-08-03T02:01:11;21.30;68.30
20672;DHT22;10495;50.922;4.760;2022-08-03T02:03:39;21.30;68.00
20672;DHT22;10495;50.922;4.760;2022-08-03T02:06:09;21.30;68.20
20672;DHT22;10495;50.922;4.760;2022-08-03T02:08:37;21.30;67.90
20672;DHT22;10495;50.922;4.760;2022-08-03T02:11:04;21.30;68.00
20672;DHT22;10495;50.922;4.760;2022-08-03T02:13:32;21.30;68.00
20672;DHT22;10495;50.922;4.760;2022-08-03T02:15:58;21.30;68.00
20672;DHT22;10495;50.922;4.760;2022-08-03T02:18:25;21.30;67.90
20672;DHT22;10495;50.922;4.760;2022-08-03T02:20:51;21.30;67.70
20672;DHT22;10495;50.922;4.760;2022-08-03T02:23:17;21.40;67.70
20672;DHT22;10495;50.922;4.760;2022-08-03T02:25:52;21.30;67.60
20672;DHT22;10495;50.922;4.760;2022-08-03T02:28:28;21.40;67.70
20672;DHT22;10495;50.922;4.760;2022-08-03T02:30:56;21.40;67.50
20672;DHT22;10495;50.922;4.760;2022-08-03T02:33:43;21.30;67.20
20672;DHT22;10495;50.922;4.760;2022-08-03T02:36:13;21.30;67.40
20672;DHT22;10495;50.922;4.760;2022-08-03T02:38:42;21.20;67.40
20672;DHT22;10495;50.922;4.760;2022-08-03T02:41:21;21.10;67.50
20672;DHT22;10495;50.922;4.760;2022-08-03T02:43:52;21.00;67.90
20672;DHT22;10495;50.922;4.760;2022-08-03T02:46:19;21.00;68.30
20672;DHT22;10495;50.922;4.760;2022-08-03T02:48:47;20.90;68.30
20672;DHT22;10495;50.922;4.760;2022-08-03T02:51:16;21.00;68.30
20672;DHT22;10495;50.922;4.760;2022-08-03T02:53:44;20.90;68.60
20672;DHT22;10495;50.922;4.760;2022-08-03T02:56:10;20.90;68.40
20672;DHT22;10495;50.922;4.760;2022-08-03T02:58:38;20.80;69.10
20672;DHT22;10495;50.922;4.760;2022-08-03T03:01:05;20.80;68.60
20672;DHT22;10495;50.922;4.760;2022-08-03T03:03:31;20.80;68.60
20672;DHT22;10495;50.922;4.760;2022-08-03T03:05:57;20.80;68.50
20672;DHT22;10495;50.922;4.760;2022-08-03T03:08:24;20.80;68.90
20672;DHT22;10495;50.922;4.760;2022-08-03T03:10:52;20.70;68.80
20672;DHT22;10495;50.922;4.760;2022-08-03T03:13:20;20.70;68.90
20672;DHT22;10495;50.922;4.760;2022-08-03T03:15:46;20.70;69.10
20672;DHT22;10495;50.922;4.760;2022-08-03T03:18:13;20.60;68.80
20672;DHT22;10495;50.922;4.760;2022-08-03T03:20:40;20.70;69.00
20672;DHT22;10495;50.922;4.760;2022-08-03T03:23:07;20.60;68.90
20672;DHT22;10495;50.922;4.760;2022-08-03T03:25:33;20.60;68.70
20672;DHT22;10495;50.922;4.760;2022-08-03T03:28:00;20.60;68.80
20672;DHT22;10495;50.922;4.760;2022-08-03T03:30:26;20.60;68.80
20672;DHT22;10495;50.922;4.760;2022-08-03T03:32:52;20.50;68.70
20672;DHT22;10495;50.922;4.760;2022-08-03T03:35:18;20.40;69.60
20672;DHT22;10495;50.922;4.760;2022-08-03T03:37:44;20.30;70.80
20672;DHT22;10495;50.922;4.760;2022-08-03T03:40:10;20.30;70.70
20672;DHT22;10495;50.922;4.760;2022-08-03T03:42:36;20.10;71.80
20672;DHT22;10495;50.922;4.760;2022-08-03T03:45:06;20.10;72.60
20672;DHT22;10495;50.922;4.760;2022-08-03T03:47:33;20.00;71.70
20672;DHT22;10495;50.922;4.760;2022-08-03T03:50:01;20.00;71.70
20672;DHT22;10495;50.922;4.760;2022-08-03T03:52:27;20.00;71.60
20672;DHT22;10495;50.922;4.760;2022-08-03T03:54:52;20.00;71.40
20672;DHT22;10495;50.922;4.760;2022-08-03T03:57:18;20.00;71.20
20672;DHT22;10495;50.922;4.760;2022-08-03T03:59:43;19.90;71.10
20672;DHT22;10495;50.922;4.760;2022-08-03T04:02:10;19.90;71.20
20672;DHT22;10495;50.922;4.760;2022-08-03T04:04:36;19.90;71.40
20672;DHT22;10495;50.922;4.760;2022-08-03T04:07:23;19.80;71.40
20672;DHT22;10495;50.922;4.760;2022-08-03T04:10:17;19.70;71.50
20672;DHT22;10495;50.922;4.760;2022-08-03T04:13:06;19.70;71.90
20672;DHT22;10495;50.922;4.760;2022-08-03T04:15:36;19.70;72.00
20672;DHT22;10495;50.922;4.760;2022-08-03T04:18:03;19.60;72.00
20672;DHT22;10495;50.922;4.760;2022-08-03T04:20:31;19.70;72.10
20672;DHT22;10495;50.922;4.760;2022-08-03T04:22:59;19.70;72.00
20672;DHT22;10495;50.922;4.760;2022-08-03T04:25:29;19.70;72.10
20672;DHT22;10495;50.922;4.760;2022-08-03T04:27:56;19.60;72.50
20672;DHT22;10495;50.922;4.760;2022-08-03T04:30:26;19.70;72.60
20672;DHT22;10495;50.922;4.760;2022-08-03T04:32:53;19.70;72.50
20672;DHT22;10495;50.922;4.760;2022-08-03T04:35:19;19.70;72.50
20672;DHT22;10495;50.922;4.760;2022-08-03T04:37:48;19.70;72.40
20672;DHT22;10495;50.922;4.760;2022-08-03T04:40:30;19.80;72.80
20672;DHT22;10495;50.922;4.760;2022-08-03T04:42:57;19.80;72.60
20672;DHT22;10495;50.922;4.760;2022-08-03T04:45:24;19.90;72.40
20672;DHT22;10495;50.922;4.760;2022-08-03T04:47:50;19.90;72.30
20672;DHT22;10495;50.922;4.760;2022-08-03T04:50:16;20.00;72.40
20672;DHT22;10495;50.922;4.760;2022-08-03T04:52:43;20.00;72.60
20672;DHT22;10495;50.922;4.760;2022-08-03T04:55:09;20.10;72.60
20672;DHT22;10495;50.922;4.760;2022-08-03T04:57:34;20.10;72.40
20672;DHT22;10495;50.922;4.760;2022-08-03T05:00:00;20.20;71.90
20672;DHT22;10495;50.922;4.760;2022-08-03T05:02:26;20.20;71.80
20672;DHT22;10495;50.922;4.760;2022-08-03T05:04:51;20.20;71.90
20672;DHT22;10495;50.922;4.760;2022-08-03T05:07:17;20.20;72.20
20672;DHT22;10495;50.922;4.760;2022-08-03T05:09:43;20.20;72.50
20672;DHT22;10495;50.922;4.760;2022-08-03T05:12:09;20.30;72.80
20672;DHT22;10495;50.922;4.760;2022-08-03T05:14:36;20.40;72.30
20672;DHT22;10495;50.922;4.760;2022-08-03T05:17:07;20.50;72.60
20672;DHT22;10495;50.922;4.760;2022-08-03T05:19:33;20.60;73.90
20672;DHT22;10495;50.922;4.760;2022-08-03T05:21:59;20.70;73.70
20672;DHT22;10495;50.922;4.760;2022-08-03T05:24:25;20.80;73.60
20672;DHT22;10495;50.922;4.760;2022-08-03T05:26:50;21.00;74.10
20672;DHT22;10495;50.922;4.760;2022-08-03T05:29:16;21.00;74.10
20672;DHT22;10495;50.922;4.760;2022-08-03T05:31:41;21.20;74.20
20672;DHT22;10495;50.922;4.760;2022-08-03T05:34:07;21.30;74.00
20672;DHT22;10495;50.922;4.760;2022-08-03T05:36:33;21.80;73.90
20672;DHT22;10495;50.922;4.760;2022-08-03T05:38:58;22.30;73.30
20672;DHT22;10495;50.922;4.760;2022-08-03T05:41:24;22.90;72.30
20672;DHT22;10495;50.922;4.760;2022-08-03T05:43:51;23.40;71.20
20672;DHT22;10495;50.922;4.760;2022-08-03T05:46:17;24.00;69.40
20672;DHT22;10495;50.922;4.760;2022-08-03T05:48:43;24.70;66.80
20672;DHT22;10495;50.922;4.760;2022-08-03T05:51:09;25.30;64.70
20672;DHT22;10495;50.922;4.760;2022-08-03T05:53:36;25.90;63.40
20672;DHT22;10495;50.922;4.760;2022-08-03T05:56:02;26.40;60.30
20672;DHT22;10495;50.922;4.760;2022-08-03T05:58:27;27.00;59.70
20672;DHT22;10495;50.922;4.760;2022-08-03T06:00:53;27.50;59.20
20672;DHT22;10495;50.922;4.760;2022-08-03T06:03:19;27.90;58.40
20672;DHT22;10495;50.922;4.760;2022-08-03T06:05:45;28.30;57.70
20672;DHT22;10495;50.922;4.760;2022-08-03T06:08:10;28.70;57.40
20672;DHT22;10495;50.922;4.760;2022-08-03T06:10:36;28.90;56.60
20672;DHT22;10495;50.922;4.760;2022-08-03T06:13:02;29.10;56.30
20672;DHT22;10495;50.922;4.760;2022-08-03T06:15:27;29.40;56.70
20672;DHT22;10495;50.922;4.760;2022-08-03T06:17:53;29.80;56.00
20672;DHT22;10495;50.922;4.760;2022-08-03T06:20:21;30.10;55.60
20672;DHT22;10495;50.922;4.760;2022-08-03T06:22:47;30.50;54.90
20672;DHT22;10495;50.922;4.760;2022-08-03T06:25:13;30.90;54.10
20672;DHT22;10495;50.922;4.760;2022-08-03T06:27:39;31.30;53.60
20672;DHT22;10495;50.922;4.760;2022-08-03T06:30:09;31.70;53.80
20672;DHT22;10495;50.922;4.760;2022-08-03T06:32:39;31.90;53.20
20672;DHT22;10495;50.922;4.760;2022-08-03T06:35:08;32.00;52.90
20672;DHT22;10495;50.922;4.760;2022-08-03T06:37:44;32.20;52.80
20672;DHT22;10495;50.922;4.760;2022-08-03T06:40:12;32.20;52.70
20672;DHT22;10495;50.922;4.760;2022-08-03T06:42:39;32.40;52.60
20672;DHT22;10495;50.922;4.760;2022-08-03T06:45:06;32.70;52.40
20672;DHT22;10495;50.922;4.760;2022-08-03T06:47:33;32.90;52.10
20672;DHT22;10495;50.922;4.760;2022-08-03T06:49:59;33.00;51.80
20672;DHT22;10495;50.922;4.760;2022-08-03T06:52:25;33.30;51.70
20672;DHT22;10495;50.922;4.760;2022-08-03T06:54:50;33.50;51.70
20672;DHT22;10495;50.922;4.760;2022-08-03T06:57:16;33.70;51.20
20672;DHT22;10495;50.922;4.760;2022-08-03T06:59:43;33.80;50.30
20672;DHT22;10495;50.922;4.760;2022-08-03T07:02:08;34.00;50.90
20672;DHT22;10495;50.922;4.760;2022-08-03T07:04:34;34.00;50.80
20672;DHT22;10495;50.922;4.760;2022-08-03T07:07:00;33.80;50.20
20672;DHT22;10495;50.922;4.760;2022-08-03T07:09:26;33.80;49.90
20672;DHT22;10495;50.922;4.760;2022-08-03T07:11:52;33.70;50.10
20672;DHT22;10495;50.922;4.760;2022-08-03T07:14:18;33.70;50.30
20672;DHT22;10495;50.922;4.760;2022-08-03T07:16:44;33.70;50.50
20672;DHT22;10495;50.922;4.760;2022-08-03T07:19:09;33.50;50.30
20672;DHT22;10495;50.922;4.760;2022-08-03T07:21:36;33.50;50.40
20672;DHT22;10495;50.922;4.760;2022-08-03T07:24:02;33.60;50.50
20672;DHT22;10495;50.922;4.760;2022-08-03T07:26:28;33.70;50.10
20672;DHT22;10495;50.922;4.760;2022-08-03T07:28:54;33.40;50.30
20672;DHT22;10495;50.922;4.760;2022-08-03T07:31:19;33.40;50.80
20672;DHT22;10495;50.922;4.760;2022-08-03T07:33:45;33.70;50.30
20672;DHT22;10495;50.922;4.760;2022-08-03T07:36:10;33.80;50.40
20672;DHT22;10495;50.922;4.760;2022-08-03T07:38:36;33.80;49.80
20672;DHT22;10495;50.922;4.760;2022-08-03T07:41:02;33.60;50.60
20672;DHT22;10495;50.922;4.760;2022-08-03T07:43:28;33.90;50.30
20672;DHT22;10495;50.922;4.760;2022-08-03T07:45:54;34.20;49.90
20672;DHT22;10495;50.922;4.760;2022-08-03T07:48:19;34.50;49.60
20672;DHT22;10495;50.922;4.760;2022-08-03T07:50:45;34.70;49.70
20672;DHT22;10495;50.922;4.760;2022-08-03T07:53:11;34.70;49.80
20672;DHT22;10495;50.922;4.760;2022-08-03T07:55:36;34.50;49.10
20672;DHT22;10495;50.922;4.760;2022-08-03T07:58:04;34.70;49.50
20672;DHT22;10495;50.922;4.760;2022-08-03T08:00:30;35.00;50.00
20672;DHT22;10495;50.922;4.760;2022-08-03T08:02:56;35.30;49.60
20672;DHT22;10495;50.922;4.760;2022-08-03T08:05:22;35.00;49.10
20672;DHT22;10495;50.922;4.760;2022-08-03T08:07:48;34.90;49.40
20672;DHT22;10495;50.922;4.760;2022-08-03T08:10:13;35.00;49.60
20672;DHT22;10495;50.922;4.760;2022-08-03T08:12:40;35.50;49.30
20672;DHT22;10495;50.922;4.760;2022-08-03T08:15:06;35.40;49.10
20672;DHT22;10495;50.922;4.760;2022-08-03T08:17:46;35.70;48.20
20672;DHT22;10495;50.922;4.760;2022-08-03T08:20:17;35.80;48.80
20672;DHT22;10495;50.922;4.760;2022-08-03T08:22:43;35.80;48.80
20672;DHT22;10495;50.922;4.760;2022-08-03T08:25:09;36.20;48.60
20672;DHT22;10495;50.922;4.760;2022-08-03T08:27:46;36.50;47.90
20672;DHT22;10495;50.922;4.760;2022-08-03T08:30:14;36.40;47.80
20672;DHT22;10495;50.922;4.760;2022-08-03T08:32:40;35.80;46.80
20672;DHT22;10495;50.922;4.760;2022-08-03T08:35:06;36.00;48.00
20672;DHT22;10495;50.922;4.760;2022-08-03T08:37:33;36.30;47.80
20672;DHT22;10495;50.922;4.760;2022-08-03T08:39:59;36.50;48.20
20672;DHT22;10495;50.922;4.760;2022-08-03T08:42:25;36.50;47.90
20672;DHT22;10495;50.922;4.760;2022-08-03T08:44:51;36.70;47.20
20672;DHT22;10495;50.922;4.760;2022-08-03T08:47:23;36.80;47.10
20672;DHT22;10495;50.922;4.760;2022-08-03T08:49:52;36.70;46.90
20672;DHT22;10495;50.922;4.760;2022-08-03T08:52:23;36.80;47.30
20672;DHT22;10495;50.922;4.760;2022-08-03T08:54:49;37.10;47.10
20672;DHT22;10495;50.922;4.760;2022-08-03T08:57:17;37.50;46.90
20672;DHT22;10495;50.922;4.760;2022-08-03T08:59:44;37.90;46.80
20672;DHT22;10495;50.922;4.760;2022-08-03T09:02:10;38.10;46.10
20672;DHT22;10495;50.922;4.760;2022-08-03T09:04:38;38.20;45.60
20672;DHT22;10495;50.922;4.760;2022-08-03T09:07:04;38.20;45.60
20672;DHT22;10495;50.922;4.760;2022-08-03T09:09:30;38.30;46.50
20672;DHT22;10495;50.922;4.760;2022-08-03T09:11:56;38.50;45.60
20672;DHT22;10495;50.922;4.760;2022-08-03T09:14:22;38.40;45.50
20672;DHT22;10495;50.922;4.760;2022-08-03T09:17:01;38.50;46.20
20672;DHT22;10495;50.922;4.760;2022-08-03T09:19:28;38.50;46.10
20672;DHT22;10495;50.922;4.760;2022-08-03T09:22:14;38.90;45.60
20672;DHT22;10495;50.922;4.760;2022-08-03T09:24:54;39.00;45.40
20672;DHT22;10495;50.922;4.760;2022-08-03T09:27:20;39.20;46.00
20672;DHT22;10495;50.922;4.760;2022-08-03T09:29:48;39.30;45.30
20672;DHT22;10495;50.922;4.760;2022-08-03T09:32:14;39.40;45.30
20672;DHT22;10495;50.922;4.760;2022-08-03T09:34:40;39.40;45.40
20672;DHT22;10495;50.922;4.760;2022-08-03T09:37:14;39.00;45.50
20672;DHT22;10495;50.922;4.760;2022-08-03T09:39:40;39.20;45.20
20672;DHT22;10495;50.922;4.760;2022-08-03T09:42:14;39.30;45.30
20672;DHT22;10495;50.922;4.760;2022-08-03T09:44:45;39.50;45.50
20672;DHT22;10495;50.922;4.760;2022-08-03T09:47:13;39.50;45.30
20672;DHT22;10495;50.922;4.760;2022-08-03T09:49:40;39.80;45.30
20672;DHT22;10495;50.922;4.760;2022-08-03T09:52:17;40.00;45.30
20672;DHT22;10495;50.922;4.760;2022-08-03T09:54:44;40.00;45.10
20672;DHT22;10495;50.922;4.760;2022-08-03T09:57:25;40.10;45.60
20672;DHT22;10495;50.922;4.760;2022-08-03T09:59:52;40.30;45.00
20672;DHT22;10495;50.922;4.760;2022-08-03T10:02:26;40.30;45.30
20672;DHT22;10495;50.922;4.760;2022-08-03T10:04:52;40.40;45.20
20672;DHT22;10495;50.922;4.760;2022-08-03T10:07:23;40.70;45.20
20672;DHT22;10495;50.922;4.760;2022-08-03T10:09:56;40.80;44.80
20672;DHT22;10495;50.922;4.760;2022-08-03T10:12:22;40.70;45.30
20672;DHT22;10495;50.922;4.760;2022-08-03T10:14:48;40.30;45.00
20672;DHT22;10495;50.922;4.760;2022-08-03T10:17:14;40.40;44.40
20672;DHT22;10495;50.922;4.760;2022-08-03T10:19:40;39.40;44.20
20672;DHT22;10495;50.922;4.760;2022-08-03T10:22:23;39.30;44.80
20672;DHT22;10495;50.922;4.760;2022-08-03T10:25:06;39.10;45.80
20672;DHT22;10495;50.922;4.760;2022-08-03T10:27:38;38.90;45.40
20672;DHT22;10495;50.922;4.760;2022-08-03T10:30:09;39.30;45.10
20672;DHT22;10495;50.922;4.760;2022-08-03T10:32:59;39.10;45.50
20672;DHT22;10495;50.922;4.760;2022-08-03T10:35:28;38.70;45.10
20672;DHT22;10495;50.922;4.760;2022-08-03T10:38:03;37.50;46.20
20672;DHT22;10495;50.922;4.760;2022-08-03T10:40:31;37.20;46.30
20672;DHT22;10495;50.922;4.760;2022-08-03T10:43:11;37.10;46.10
20672;DHT22;10495;50.922;4.760;2022-08-03T10:45:40;36.90;45.90
20672;DHT22;10495;50.922;4.760;2022-08-03T10:48:07;36.50;45.80
20672;DHT22;10495;50.922;4.760;2022-08-03T10:50:34;36.30;45.80
20672;DHT22;10495;50.922;4.760;2022-08-03T10:53:04;36.10;46.80
20672;DHT22;10495;50.922;4.760;2022-08-03T10:55:41;35.80;46.60
20672;DHT22;10495;50.922;4.760;2022-08-03T10:58:52;35.50;46.10
20672;DHT22;10495;50.922;4.760;2022-08-03T11:02:11;35.30;46.40
20672;DHT22;10495;50.922;4.760;2022-08-03T11:04:32;35.20;46.70
20672;DHT22;10495;50.922;4.760;2022-08-03T11:07:17;35.20;46.90
20672;DHT22;10495;50.922;4.760;2022-08-03T11:09:44;35.20;47.30
20672;DHT22;10495;50.922;4.760;2022-08-03T11:12:27;34.60;46.00
20672;DHT22;10495;50.922;4.760;2022-08-03T11:14:55;34.70;46.30
20672;DHT22;10495;50.922;4.760;2022-08-03T11:17:20;34.60;46.80
20672;DHT22;10495;50.922;4.760;2022-08-03T11:19:51;34.50;47.30
20672;DHT22;10495;50.922;4.760;2022-08-03T11:22:19;34.50;46.20
20672;DHT22;10495;50.922;4.760;2022-08-03T11:33:01;33.60;47.00
20672;DHT22;10495;50.922;4.760;2022-08-03T11:35:31;33.70;46.90
20672;DHT22;10495;50.922;4.760;2022-08-03T11:40:39;33.30;47.60
20672;DHT22;10495;50.922;4.760;2022-08-03T11:43:09;33.60;47.10
20672;DHT22;10495;50.922;4.760;2022-08-03T11:48:32;33.80;47.20
20672;DHT22;10495;50.922;4.760;2022-08-03T11:51:05;33.60;47.40
20672;DHT22;10495;50.922;4.760;2022-08-03T11:53:32;33.80;47.20
20672;DHT22;10495;50.922;4.760;2022-08-03T11:56:00;33.90;46.70
20672;DHT22;10495;50.922;4.760;2022-08-03T11:58:27;34.20;46.50
20672;DHT22;10495;50.922;4.760;2022-08-03T12:01:03;34.20;47.00
20672;DHT22;10495;50.922;4.760;2022-08-03T12:03:32;34.20;46.80
20672;DHT22;10495;50.922;4.760;2022-08-03T12:05:58;34.20;46.20
20672;DHT22;10495;50.922;4.760;2022-08-03T12:10:51;34.00;46.70
20672;DHT22;10495;50.922;4.760;2022-08-03T12:13:18;33.60;46.20
20672;DHT22;10495;50.922;4.760;2022-08-03T12:15:53;33.20;46.60
20672;DHT22;10495;50.922;4.760;2022-08-03T12:18:19;33.00;46.90
20672;DHT22;10495;50.922;4.760;2022-08-03T12:20:47;32.90;47.20
20672;DHT22;10495;50.922;4.760;2022-08-03T12:23:13;32.90;47.40
20672;DHT22;10495;50.922;4.760;2022-08-03T12:25:40;33.00;47.70
20672;DHT22;10495;50.922;4.760;2022-08-03T12:28:11;33.20;47.20
20672;DHT22;10495;50.922;4.760;2022-08-03T12:30:38;33.40;47.20
20672;DHT22;10495;50.922;4.760;2022-08-03T12:35:45;33.50;46.90
20672;DHT22;10495;50.922;4.760;2022-08-03T12:38:11;33.70;46.60
20672;DHT22;10495;50.922;4.760;2022-08-03T12:40:37;33.60;46.70
20672;DHT22;10495;50.922;4.760;2022-08-03T12:43:10;33.80;46.90
20672;DHT22;10495;50.922;4.760;2022-08-03T12:45:36;34.20;46.60
20672;DHT22;10495;50.922;4.760;2022-08-03T12:48:02;34.30;46.40
20672;DHT22;10495;50.922;4.760;2022-08-03T12:50:34;34.50;46.20
20672;DHT22;10495;50.922;4.760;2022-08-03T12:53:01;34.40;46.40
20672;DHT22;10495;50.922;4.760;2022-08-03T12:55:29;34.60;45.40
20672;DHT22;10495;50.922;4.760;2022-08-03T12:58:05;34.50;46.50
20672;DHT22;10495;50.922;4.760;2022-08-03T13:00:33;34.20;46.20
20672;DHT22;10495;50.922;4.760;2022-08-03T13:03:05;33.90;46.50
20672;DHT22;10495;50.922;4.760;2022-08-03T13:05:41;33.70;46.50
20672;DHT22;10495;50.922;4.760;2022-08-03T13:08:20;33.90;46.90
20672;DHT22;10495;50.922;4.760;2022-08-03T13:10:46;34.20;46.20
20672;DHT22;10495;50.922;4.760;2022-08-03T13:13:12;34.30;45.80
20672;DHT22;10495;50.922;4.760;2022-08-03T13:15:38;34.40;45.70
20672;DHT22;10495;50.922;4.760;2022-08-03T13:18:03;34.50;45.70
20672;DHT22;10495;50.922;4.760;2022-08-03T13:20:29;34.50;46.20
20672;DHT22;10495;50.922;4.760;2022-08-03T13:22:55;34.60;45.90
20672;DHT22;10495;50.922;4.760;2022-08-03T13:25:21;34.60;45.70
20672;DHT22;10495;50.922;4.760;2022-08-03T13:27:47;34.70;45.70
20672;DHT22;10495;50.922;4.760;2022-08-03T13:30:13;34.80;45.60
20672;DHT22;10495;50.922;4.760;2022-08-03T13:32:40;34.80;46.10
20672;DHT22;10495;50.922;4.760;2022-08-03T13:35:07;34.30;45.60
20672;DHT22;10495;50.922;4.760;2022-08-03T13:37:33;34.40;46.10
20672;DHT22;10495;50.922;4.760;2022-08-03T13:40:00;34.40;46.00
20672;DHT22;10495;50.922;4.760;2022-08-03T13:42:26;34.50;46.00
20672;DHT22;10495;50.922;4.760;2022-08-03T13:44:52;34.40;45.60
20672;DHT22;10495;50.922;4.760;2022-08-03T13:47:18;34.50;45.60
20672;DHT22;10495;50.922;4.760;2022-08-03T13:49:44;34.50;45.30
20672;DHT22;10495;50.922;4.760;2022-08-03T13:52:09;34.50;46.00
20672;DHT22;10495;50.922;4.760;2022-08-03T13:54:35;34.40;45.20
20672;DHT22;10495;50.922;4.760;2022-08-03T13:57:00;34.60;45.20
20672;DHT22;10495;50.922;4.760;2022-08-03T13:59:26;34.70;45.40
20672;DHT22;10495;50.922;4.760;2022-08-03T14:01:52;34.80;44.80
20672;DHT22;10495;50.922;4.760;2022-08-03T14:04:19;34.90;45.30
20672;DHT22;10495;50.922;4.760;2022-08-03T14:06:45;35.10;45.00
20672;DHT22;10495;50.922;4.760;2022-08-03T14:09:12;35.10;44.90
20672;DHT22;10495;50.922;4.760;2022-08-03T14:11:41;35.00;45.30
20672;DHT22;10495;50.922;4.760;2022-08-03T14:14:07;35.10;45.20
20672;DHT22;10495;50.922;4.760;2022-08-03T14:16:32;34.90;45.30
20672;DHT22;10495;50.922;4.760;2022-08-03T14:18:58;34.80;44.80
20672;DHT22;10495;50.922;4.760;2022-08-03T14:21:24;34.50;44.40
20672;DHT22;10495;50.922;4.760;2022-08-03T14:23:49;34.60;45.30
20672;DHT22;10495;50.922;4.760;2022-08-03T14:26:15;34.60;45.30
20672;DHT22;10495;50.922;4.760;2022-08-03T14:28:42;34.40;44.90
20672;DHT22;10495;50.922;4.760;2022-08-03T14:31:08;34.50;45.10
20672;DHT22;10495;50.922;4.760;2022-08-03T14:33:34;34.50;44.90
20672;DHT22;10495;50.922;4.760;2022-08-03T14:35:59;34.50;45.10
20672;DHT22;10495;50.922;4.760;2022-08-03T14:38:26;34.40;45.50
20672;DHT22;10495;50.922;4.760;2022-08-03T14:40:51;34.20;45.30
20672;DHT22;10495;50.922;4.760;2022-08-03T14:43:17;34.20;45.60
20672;DHT22;10495;50.922;4.760;2022-08-03T14:45:46;34.30;45.70
20672;DHT22;10495;50.922;4.760;2022-08-03T14:48:12;34.30;45.60
20672;DHT22;10495;50.922;4.760;2022-08-03T14:50:39;34.20;45.00
20672;DHT22;10495;50.922;4.760;2022-08-03T14:53:04;34.30;45.00
20672;DHT22;10495;50.922;4.760;2022-08-03T14:55:30;34.40;45.40
20672;DHT22;10495;50.922;4.760;2022-08-03T14:57:56;34.40;45.60
20672;DHT22;10495;50.922;4.760;2022-08-03T15:00:22;34.30;45.50
20672;DHT22;10495;50.922;4.760;2022-08-03T15:02:47;34.30;45.60
20672;DHT22;10495;50.922;4.760;2022-08-03T15:05:13;34.20;45.20
20672;DHT22;10495;50.922;4.760;2022-08-03T15:07:39;34.20;45.30
20672;DHT22;10495;50.922;4.760;2022-08-03T15:10:05;34.10;45.30
20672;DHT22;10495;50.922;4.760;2022-08-03T15:12:31;34.00;44.90
20672;DHT22;10495;50.922;4.760;2022-08-03T15:14:56;34.10;45.00
20672;DHT22;10495;50.922;4.760;2022-08-03T15:17:22;34.20;45.10
20672;DHT22;10495;50.922;4.760;2022-08-03T15:19:48;34.30;45.40
20672;DHT22;10495;50.922;4.760;2022-08-03T15:22:13;34.30;44.90
20672;DHT22;10495;50.922;4.760;2022-08-03T15:24:41;34.40;44.70
20672;DHT22;10495;50.922;4.760;2022-08-03T15:27:07;34.40;44.90
20672;DHT22;10495;50.922;4.760;2022-08-03T15:29:33;34.20;44.70
20672;DHT22;10495;50.922;4.760;2022-08-03T15:31:58;34.10;44.90
20672;DHT22;10495;50.922;4.760;2022-08-03T15:34:24;34.10;45.00
20672;DHT22;10495;50.922;4.760;2022-08-03T15:36:50;34.20;45.30
20672;DHT22;10495;50.922;4.760;2022-08-03T15:39:15;34.20;45.20
20672;DHT22;10495;50.922;4.760;2022-08-03T15:41:41;34.20;45.10
20672;DHT22;10495;50.922;4.760;2022-08-03T15:44:06;34.30;45.00
20672;DHT22;10495;50.922;4.760;2022-08-03T15:46:32;34.30;44.80
20672;DHT22;10495;50.922;4.760;2022-08-03T15:48:58;34.30;44.90
20672;DHT22;10495;50.922;4.760;2022-08-03T15:51:23;34.60;44.30
20672;DHT22;10495;50.922;4.760;2022-08-03T15:53:49;34.40;44.60
20672;DHT22;10495;50.922;4.760;2022-08-03T15:56:14;34.30;44.90
20672;DHT22;10495;50.922;4.760;2022-08-03T15:58:40;34.30;45.00
20672;DHT22;10495;50.922;4.760;2022-08-03T16:01:06;34.40;44.50
20672;DHT22;10495;50.922;4.760;2022-08-03T16:03:32;34.40;44.80
20672;DHT22;10495;50.922;4.760;2022-08-03T16:06:05;34.50;44.80